sensor_id;sensor_type;location;lat;lon;timestamp;P1;durP1;ratioP1;P2;durP2;ratioP2
8592;SDS011;4334;49.982;8.398;2024-01-16T00:02:17;2.57;;;2.27;;
8592;SDS011;4334;49.982;8.398;2024-01-16T00:04:43;7.40;;;2.20;;
8592;SDS011;4334;49.982;8.398;2024-01-16T00:07:11;3.50;;;2.17;;
8592;SDS011;4334;49.982;8.398;2024-01-16T00:09:38;3.37;;;2.37;;
8592;SDS011;4334;49.982;8.398;2024-01-16T00:12:05;3.23;;;2.27;;
8592;SDS011;4334;49.982;8.398;2024-01-16T00:14:34;6.43;;;2.83;;
8592;SDS011;4334;49.982;8.398;2024-01-16T00:17:01;4.50;;;2.40;;
8592;SDS011;4334;49.982;8.398;2024-01-16T00:19:28;4.20;;;2.77;;
8592;SDS011;4334;49.982;8.398;2024-01-16T00:21:55;3.43;;;2.43;;
8592;SDS011;4334;49.982;8.398;2024-01-16T00:24:23;4.83;;;2.60;;
8592;SDS011;4334;49.982;8.398;2024-01-16T00:26:50;3.87;;;2.33;;
8592;SDS011;4334;49.982;8.398;2024-01-16T00:29:16;11.67;;;2.90;;
8592;SDS011;4334;49.982;8.398;2024-01-16T00:31:43;6.87;;;2.90;;
8592;SDS011;4334;49.982;8.398;2024-01-16T00:34:10;3.60;;;2.63;;
8592;SDS011;4334;49.982;8.398;2024-01-16T00:36:36;6.30;;;2.63;;
8592;SDS011;4334;49.982;8.398;2024-01-16T00:39:03;4.07;;;2.50;;
8592;SDS011;4334;49.982;8.398;2024-01-16T00:41:31;5.17;;;2.83;;
8592;SDS011;4334;49.982;8.398;2024-01-16T00:43:57;6.47;;;2.50;;
8592;SDS011;4334;49.982;8.398;2024-01-16T00:46:24;11.10;;;3.67;;
8592;SDS011;4334;49.982;8.398;2024-01-16T00:48:51;6.20;;;2.70;;
8592;SDS011;4334;49.982;8.398;2024-01-16T00:51:17;4.53;;;3.10;;
8592;SDS011;4334;49.982;8.398;2024-01-16T00:53:44;6.40;;;2.57;;
8592;SDS011;4334;49.982;8.398;2024-01-16T00:56:11;4.03;;;2.60;;
8592;SDS011;4334;49.982;8.398;2024-01-16T00:58:39;3.37;;;2.50;;
8592;SDS011;4334;49.982;8.398;2024-01-16T01:01:06;3.50;;;2.50;;
8592;SDS011;4334;49.982;8.398;2024-01-16T01:03:33;7.40;;;3.20;;
8592;SDS011;4334;49.982;8.398;2024-01-16T01:06:00;4.83;;;2.23;;
8592;SDS011;4334;49.982;8.398;2024-01-16T01:08:27;3.93;;;2.30;;
8592;SDS011;4334;49.982;8.398;2024-01-16T01:10:53;6.93;;;2.80;;
8592;SDS011;4334;49.982;8.398;2024-01-16T01:13:20;4.73;;;2.73;;
8592;SDS011;4334;49.982;8.398;2024-01-16T01:15:48;4.20;;;2.33;;
8592;SDS011;4334;49.982;8.398;2024-01-16T01:18:15;3.27;;;2.37;;
8592;SDS011;4334;49.982;8.398;2024-01-16T01:20:41;7.83;;;3.43;;
8592;SDS011;4334;49.982;8.398;2024-01-16T01:23:08;4.73;;;3.00;;
8592;SDS011;4334;49.982;8.398;2024-01-16T01:25:36;4.60;;;2.87;;
8592;SDS011;4334;49.982;8.398;2024-01-16T01:28:02;4.23;;;2.77;;
8592;SDS011;4334;49.982;8.398;2024-01-16T01:30:29;3.93;;;2.67;;
8592;SDS011;4334;49.982;8.398;2024-01-16T01:32:57;5.53;;;3.20;;
8592;SDS011;4334;49.982;8.398;2024-01-16T01:35:24;8.87;;;3.63;;
8592;SDS011;4334;49.982;8.398;2024-01-16T01:37:51;4.60;;;2.27;;
8592;SDS011;4334;49.982;8.398;2024-01-16T01:40:18;4.00;;;2.50;;
8592;SDS011;4334;49.982;8.398;2024-01-16T01:42:44;4.93;;;3.13;;
8592;SDS011;4334;49.982;8.398;2024-01-16T01:45:11;4.57;;;2.97;;
8592;SDS011;4334;49.982;8.398;2024-01-16T01:47:38;4.73;;;2.87;;
8592;SDS011;4334;49.982;8.398;2024-01-16T01:50:08;4.17;;;2.50;;
8592;SDS011;4334;49.982;8.398;2024-01-16T01:52:36;4.03;;;3.20;;
8592;SDS011;4334;49.982;8.398;2024-01-16T01:55:05;4.07;;;2.57;;
8592;SDS011;4334;49.982;8.398;2024-01-16T01:57:35;8.50;;;3.23;;
8592;SDS011;4334;49.982;8.398;2024-01-16T02:00:02;3.77;;;2.50;;
8592;SDS011;4334;49.982;8.398;2024-01-16T02:02:30;10.00;;;2.93;;
8592;SDS011;4334;49.982;8.398;2024-01-16T02:04:58;7.53;;;2.73;;
8592;SDS011;4334;49.982;8.398;2024-01-16T02:07:26;5.50;;;3.17;;
8592;SDS011;4334;49.982;8.398;2024-01-16T02:09:53;4.60;;;2.67;;
8592;SDS011;4334;49.982;8.398;2024-01-16T02:12:20;5.93;;;2.90;;
8592;SDS011;4334;49.982;8.398;2024-01-16T02:14:47;4.23;;;3.10;;
8592;SDS011;4334;49.982;8.398;2024-01-16T02:17:13;4.67;;;2.67;;
8592;SDS011;4334;49.982;8.398;2024-01-16T02:19:40;4.63;;;3.00;;
8592;SDS011;4334;49.982;8.398;2024-01-16T02:22:07;5.23;;;2.90;;
8592;SDS011;4334;49.982;8.398;2024-01-16T02:24:41;5.37;;;3.37;;
8592;SDS011;4334;49.982;8.398;2024-01-16T02:27:07;10.03;;;2.83;;
8592;SDS011;4334;49.982;8.398;2024-01-16T02:29:35;6.90;;;3.60;;
8592;SDS011;4334;49.982;8.398;2024-01-16T02:32:06;6.27;;;3.07;;
8592;SDS011;4334;49.982;8.398;2024-01-16T02:34:33;5.10;;;2.83;;
8592;SDS011;4334;49.982;8.398;2024-01-16T02:36:59;3.50;;;2.60;;
8592;SDS011;4334;49.982;8.398;2024-01-16T02:39:26;6.33;;;3.30;;
8592;SDS011;4334;49.982;8.398;2024-01-16T02:41:54;5.67;;;3.20;;
8592;SDS011;4334;49.982;8.398;2024-01-16T02:44:21;4.53;;;3.17;;
8592;SDS011;4334;49.982;8.398;2024-01-16T02:46:48;6.70;;;2.87;;
8592;SDS011;4334;49.982;8.398;2024-01-16T02:49:14;6.70;;;3.30;;
8592;SDS011;4334;49.982;8.398;2024-01-16T02:51:41;11.30;;;3.23;;
8592;SDS011;4334;49.982;8.398;2024-01-16T02:54:09;10.37;;;3.70;;
8592;SDS011;4334;49.982;8.398;2024-01-16T02:56:37;13.40;;;3.10;;
8592;SDS011;4334;49.982;8.398;2024-01-16T02:59:05;9.20;;;3.43;;
8592;SDS011;4334;49.982;8.398;2024-01-16T03:01:31;6.77;;;2.83;;
8592;SDS011;4334;49.982;8.398;2024-01-16T03:03:58;3.57;;;2.67;;
8592;SDS011;4334;49.982;8.398;2024-01-16T03:06:25;5.63;;;2.93;;
8592;SDS011;4334;49.982;8.398;2024-01-16T03:08:53;5.03;;;3.30;;
8592;SDS011;4334;49.982;8.398;2024-01-16T03:11:20;5.47;;;3.23;;
8592;SDS011;4334;49.982;8.398;2024-01-16T03:13:46;6.50;;;3.13;;
8592;SDS011;4334;49.982;8.398;2024-01-16T03:16:16;6.77;;;2.90;;
8592;SDS011;4334;49.982;8.398;2024-01-16T03:18:42;5.93;;;2.80;;
8592;SDS011;4334;49.982;8.398;2024-01-16T03:21:10;7.57;;;3.17;;
8592;SDS011;4334;49.982;8.398;2024-01-16T03:23:38;4.10;;;2.70;;
8592;SDS011;4334;49.982;8.398;2024-01-16T03:26:04;8.00;;;2.63;;
8592;SDS011;4334;49.982;8.398;2024-01-16T03:28:31;3.93;;;2.73;;
8592;SDS011;4334;49.982;8.398;2024-01-16T03:30:57;2.70;;;2.47;;
8592;SDS011;4334;49.982;8.398;2024-01-16T03:33:25;5.73;;;2.50;;
8592;SDS011;4334;49.982;8.398;2024-01-16T03:35:52;7.40;;;2.87;;
8592;SDS011;4334;49.982;8.398;2024-01-16T03:38:19;7.63;;;2.80;;
8592;SDS011;4334;49.982;8.398;2024-01-16T03:40:45;4.40;;;2.87;;
8592;SDS011;4334;49.982;8.398;2024-01-16T03:43:12;7.77;;;2.80;;
8592;SDS011;4334;49.982;8.398;2024-01-16T03:45:39;6.93;;;3.70;;
8592;SDS011;4334;49.982;8.398;2024-01-16T03:48:05;5.07;;;2.80;;
8592;SDS011;4334;49.982;8.398;2024-01-16T03:50:33;5.73;;;2.97;;
8592;SDS011;4334;49.982;8.398;2024-01-16T03:53:01;3.90;;;3.00;;
8592;SDS011;4334;49.982;8.398;2024-01-16T03:55:29;6.83;;;2.80;;
8592;SDS011;4334;49.982;8.398;2024-01-16T03:57:55;5.57;;;3.33;;
8592;SDS011;4334;49.982;8.398;2024-01-16T04:00:22;5.37;;;2.67;;
8592;SDS011;4334;49.982;8.398;2024-01-16T04:02:49;3.40;;;2.40;;
8592;SDS011;4334;49.982;8.398;2024-01-16T04:05:15;3.87;;;2.73;;
8592;SDS011;4334;49.982;8.398;2024-01-16T04:07:43;9.10;;;3.50;;
8592;SDS011;4334;49.982;8.398;2024-01-16T04:10:10;5.43;;;3.20;;
8592;SDS011;4334;49.982;8.398;2024-01-16T04:12:38;4.77;;;3.07;;
8592;SDS011;4334;49.982;8.398;2024-01-16T04:15:04;9.43;;;2.57;;
8592;SDS011;4334;49.982;8.398;2024-01-16T04:17:32;7.77;;;3.10;;
8592;SDS011;4334;49.982;8.398;2024-01-16T04:19:58;5.47;;;3.00;;
8592;SDS011;4334;49.982;8.398;2024-01-16T04:22:25;7.87;;;2.63;;
8592;SDS011;4334;49.982;8.398;2024-01-16T04:24:53;3.13;;;2.50;;
8592;SDS011;4334;49.982;8.398;2024-01-16T04:27:20;5.33;;;3.03;;
8592;SDS011;4334;49.982;8.398;2024-01-16T04:29:46;7.07;;;2.93;;
8592;SDS011;4334;49.982;8.398;2024-01-16T04:32:13;4.07;;;2.73;;
8592;SDS011;4334;49.982;8.398;2024-01-16T04:34:40;5.53;;;2.93;;
8592;SDS011;4334;49.982;8.398;2024-01-16T04:37:06;5.00;;;2.60;;
8592;SDS011;4334;49.982;8.398;2024-01-16T04:39:33;5.53;;;3.20;;
8592;SDS011;4334;49.982;8.398;2024-01-16T04:42:01;6.90;;;3.30;;
8592;SDS011;4334;49.982;8.398;2024-01-16T04:44:28;8.07;;;4.57;;
8592;SDS011;4334;49.982;8.398;2024-01-16T04:46:54;3.23;;;2.77;;
8592;SDS011;4334;49.982;8.398;2024-01-16T04:49:21;5.47;;;2.83;;
8592;SDS011;4334;49.982;8.398;2024-01-16T04:51:50;8.73;;;2.60;;
8592;SDS011;4334;49.982;8.398;2024-01-16T04:54:17;4.03;;;2.70;;
8592;SDS011;4334;49.982;8.398;2024-01-16T04:56:43;12.00;;;3.07;;
8592;SDS011;4334;49.982;8.398;2024-01-16T04:59:11;6.93;;;2.80;;
8592;SDS011;4334;49.982;8.398;2024-01-16T05:01:38;7.30;;;3.80;;
8592;SDS011;4334;49.982;8.398;2024-01-16T05:04:05;5.57;;;3.00;;
8592;SDS011;4334;49.982;8.398;2024-01-16T05:06:33;5.73;;;2.70;;
8592;SDS011;4334;49.982;8.398;2024-01-16T05:08:59;9.23;;;3.33;;
8592;SDS011;4334;49.982;8.398;2024-01-16T05:11:26;6.50;;;3.37;;
8592;SDS011;4334;49.982;8.398;2024-01-16T05:13:53;4.87;;;2.87;;
8592;SDS011;4334;49.982;8.398;2024-01-16T05:16:24;4.23;;;3.00;;
8592;SDS011;4334;49.982;8.398;2024-01-16T05:18:51;3.77;;;2.50;;
8592;SDS011;4334;49.982;8.398;2024-01-16T05:21:18;7.57;;;3.50;;
8592;SDS011;4334;49.982;8.398;2024-01-16T05:23:45;5.80;;;3.23;;
8592;SDS011;4334;49.982;8.398;2024-01-16T05:26:12;5.23;;;3.40;;
8592;SDS011;4334;49.982;8.398;2024-01-16T05:28:39;6.03;;;3.27;;
8592;SDS011;4334;49.982;8.398;2024-01-16T05:31:06;8.67;;;2.67;;
8592;SDS011;4334;49.982;8.398;2024-01-16T05:33:34;6.03;;;3.13;;
8592;SDS011;4334;49.982;8.398;2024-01-16T05:36:00;7.93;;;3.53;;
8592;SDS011;4334;49.982;8.398;2024-01-16T05:38:27;9.60;;;3.63;;
8592;SDS011;4334;49.982;8.398;2024-01-16T05:40:54;14.47;;;4.47;;
8592;SDS011;4334;49.982;8.398;2024-01-16T05:43:21;7.40;;;4.13;;
8592;SDS011;4334;49.982;8.398;2024-01-16T05:45:47;13.47;;;4.13;;
8592;SDS011;4334;49.982;8.398;2024-01-16T05:48:15;6.33;;;3.20;;
8592;SDS011;4334;49.982;8.398;2024-01-16T05:50:43;5.07;;;3.07;;
8592;SDS011;4334;49.982;8.398;2024-01-16T05:53:10;6.63;;;3.50;;
8592;SDS011;4334;49.982;8.398;2024-01-16T05:55:36;8.70;;;4.07;;
8592;SDS011;4334;49.982;8.398;2024-01-16T05:58:03;9.77;;;3.57;;
8592;SDS011;4334;49.982;8.398;2024-01-16T06:00:30;8.57;;;3.57;;
8592;SDS011;4334;49.982;8.398;2024-01-16T06:02:58;6.03;;;3.43;;
8592;SDS011;4334;49.982;8.398;2024-01-16T06:05:25;8.37;;;3.47;;
8592;SDS011;4334;49.982;8.398;2024-01-16T06:07:53;5.17;;;3.33;;
8592;SDS011;4334;49.982;8.398;2024-01-16T06:10:20;11.57;;;4.07;;
8592;SDS011;4334;49.982;8.398;2024-01-16T06:12:47;6.33;;;3.40;;
8592;SDS011;4334;49.982;8.398;2024-01-16T06:15:13;6.10;;;3.40;;
8592;SDS011;4334;49.982;8.398;2024-01-16T06:17:40;5.60;;;3.53;;
8592;SDS011;4334;49.982;8.398;2024-01-16T06:20:07;7.80;;;3.13;;
8592;SDS011;4334;49.982;8.398;2024-01-16T06:22:35;6.63;;;3.87;;
8592;SDS011;4334;49.982;8.398;2024-01-16T06:25:04;11.93;;;3.90;;
8592;SDS011;4334;49.982;8.398;2024-01-16T06:27:31;8.27;;;4.10;;
8592;SDS011;4334;49.982;8.398;2024-01-16T06:29:58;9.43;;;4.73;;
8592;SDS011;4334;49.982;8.398;2024-01-16T06:32:25;7.33;;;3.70;;
8592;SDS011;4334;49.982;8.398;2024-01-16T06:34:51;9.60;;;3.63;;
8592;SDS011;4334;49.982;8.398;2024-01-16T06:37:18;10.93;;;4.17;;
8592;SDS011;4334;49.982;8.398;2024-01-16T06:39:44;17.50;;;3.50;;
8592;SDS011;4334;49.982;8.398;2024-01-16T06:42:14;7.40;;;3.53;;
8592;SDS011;4334;49.982;8.398;2024-01-16T06:44:40;6.97;;;3.90;;
8592;SDS011;4334;49.982;8.398;2024-01-16T06:47:07;6.97;;;3.60;;
8592;SDS011;4334;49.982;8.398;2024-01-16T06:49:33;5.77;;;3.73;;
8592;SDS011;4334;49.982;8.398;2024-01-16T06:52:00;8.43;;;4.23;;
8592;SDS011;4334;49.982;8.398;2024-01-16T06:54:27;7.13;;;3.70;;
8592;SDS011;4334;49.982;8.398;2024-01-16T06:56:53;7.77;;;3.27;;
8592;SDS011;4334;49.982;8.398;2024-01-16T06:59:21;5.10;;;3.13;;
8592;SDS011;4334;49.982;8.398;2024-01-16T07:01:48;14.73;;;3.77;;
8592;SDS011;4334;49.982;8.398;2024-01-16T07:04:15;9.93;;;4.03;;
8592;SDS011;4334;49.982;8.398;2024-01-16T07:06:41;7.13;;;4.07;;
8592;SDS011;4334;49.982;8.398;2024-01-16T07:09:08;18.30;;;5.20;;
8592;SDS011;4334;49.982;8.398;2024-01-16T07:11:36;7.67;;;4.97;;
8592;SDS011;4334;49.982;8.398;2024-01-16T07:14:03;7.57;;;3.83;;
8592;SDS011;4334;49.982;8.398;2024-01-16T07:16:31;11.20;;;4.30;;
8592;SDS011;4334;49.982;8.398;2024-01-16T07:18:58;6.70;;;4.03;;
8592;SDS011;4334;49.982;8.398;2024-01-16T07:21:24;6.97;;;3.90;;
8592;SDS011;4334;49.982;8.398;2024-01-16T07:23:51;8.57;;;4.50;;
8592;SDS011;4334;49.982;8.398;2024-01-16T07:26:18;9.93;;;4.20;;
8592;SDS011;4334;49.982;8.398;2024-01-16T07:28:44;6.23;;;3.43;;
8592;SDS011;4334;49.982;8.398;2024-01-16T07:31:12;7.87;;;4.23;;
8592;SDS011;4334;49.982;8.398;2024-01-16T07:33:41;9.70;;;4.90;;
8592;SDS011;4334;49.982;8.398;2024-01-16T07:36:08;9.17;;;4.47;;
8592;SDS011;4334;49.982;8.398;2024-01-16T07:38:35;8.57;;;4.30;;
8592;SDS011;4334;49.982;8.398;2024-01-16T07:41:02;9.47;;;4.03;;
8592;SDS011;4334;49.982;8.398;2024-01-16T07:43:29;6.57;;;3.83;;
8592;SDS011;4334;49.982;8.398;2024-01-16T07:45:56;11.53;;;4.70;;
8592;SDS011;4334;49.982;8.398;2024-01-16T07:48:23;10.47;;;4.77;;
8592;SDS011;4334;49.982;8.398;2024-01-16T07:50:51;10.80;;;4.40;;
8592;SDS011;4334;49.982;8.398;2024-01-16T07:53:17;7.93;;;4.43;;
8592;SDS011;4334;49.982;8.398;2024-01-16T07:55:44;8.10;;;4.83;;
8592;SDS011;4334;49.982;8.398;2024-01-16T07:58:12;12.73;;;4.30;;
8592;SDS011;4334;49.982;8.398;2024-01-16T08:00:40;8.50;;;4.60;;
8592;SDS011;4334;49.982;8.398;2024-01-16T08:03:07;9.20;;;4.80;;
8592;SDS011;4334;49.982;8.398;2024-01-16T08:05:35;7.63;;;4.03;;
8592;SDS011;4334;49.982;8.398;2024-01-16T08:08:04;11.03;;;4.40;;
8592;SDS011;4334;49.982;8.398;2024-01-16T08:10:31;12.03;;;4.33;;
8592;SDS011;4334;49.982;8.398;2024-01-16T08:12:57;8.87;;;4.50;;
8592;SDS011;4334;49.982;8.398;2024-01-16T08:15:24;9.77;;;4.57;;
8592;SDS011;4334;49.982;8.398;2024-01-16T08:17:51;10.23;;;4.53;;
8592;SDS011;4334;49.982;8.398;2024-01-16T08:20:17;15.67;;;5.73;;
8592;SDS011;4334;49.982;8.398;2024-01-16T08:22:44;12.33;;;4.90;;
8592;SDS011;4334;49.982;8.398;2024-01-16T08:25:12;11.63;;;5.10;;
8592;SDS011;4334;49.982;8.398;2024-01-16T08:27:39;10.17;;;5.40;;
8592;SDS011;4334;49.982;8.398;2024-01-16T08:30:06;7.27;;;4.67;;
8592;SDS011;4334;49.982;8.398;2024-01-16T08:32:33;10.73;;;6.13;;
8592;SDS011;4334;49.982;8.398;2024-01-16T08:35:00;11.67;;;6.40;;
8592;SDS011;4334;49.982;8.398;2024-01-16T08:37:26;11.00;;;5.93;;
8592;SDS011;4334;49.982;8.398;2024-01-16T08:39:53;12.80;;;5.43;;
8592;SDS011;4334;49.982;8.398;2024-01-16T08:42:21;10.67;;;5.47;;
8592;SDS011;4334;49.982;8.398;2024-01-16T08:44:48;9.33;;;5.10;;
8592;SDS011;4334;49.982;8.398;2024-01-16T08:47:14;9.70;;;5.67;;
8592;SDS011;4334;49.982;8.398;2024-01-16T08:49:41;16.40;;;5.70;;
8592;SDS011;4334;49.982;8.398;2024-01-16T08:52:08;10.87;;;5.50;;
8592;SDS011;4334;49.982;8.398;2024-01-16T08:54:35;10.23;;;5.77;;
8592;SDS011;4334;49.982;8.398;2024-01-16T08:57:02;12.13;;;5.50;;
8592;SDS011;4334;49.982;8.398;2024-01-16T08:59:30;11.77;;;5.00;;
8592;SDS011;4334;49.982;8.398;2024-01-16T09:01:57;11.23;;;5.20;;
8592;SDS011;4334;49.982;8.398;2024-01-16T09:04:24;12.63;;;5.63;;
8592;SDS011;4334;49.982;8.398;2024-01-16T09:06:50;15.73;;;5.93;;
8592;SDS011;4334;49.982;8.398;2024-01-16T09:09:18;9.33;;;4.80;;
8592;SDS011;4334;49.982;8.398;2024-01-16T09:11:45;11.37;;;5.47;;
8592;SDS011;4334;49.982;8.398;2024-01-16T09:14:11;9.73;;;5.30;;
8592;SDS011;4334;49.982;8.398;2024-01-16T09:16:39;10.50;;;4.90;;
8592;SDS011;4334;49.982;8.398;2024-01-16T09:19:07;12.33;;;5.53;;
8592;SDS011;4334;49.982;8.398;2024-01-16T09:21:34;10.80;;;5.50;;
8592;SDS011;4334;49.982;8.398;2024-01-16T09:24:01;8.53;;;4.80;;
8592;SDS011;4334;49.982;8.398;2024-01-16T09:26:27;8.97;;;4.40;;
8592;SDS011;4334;49.982;8.398;2024-01-16T09:28:56;8.07;;;4.53;;
8592;SDS011;4334;49.982;8.398;2024-01-16T09:31:23;9.80;;;4.37;;
8592;SDS011;4334;49.982;8.398;2024-01-16T09:33:51;12.20;;;4.43;;
8592;SDS011;4334;49.982;8.398;2024-01-16T09:36:18;8.00;;;4.10;;
8592;SDS011;4334;49.982;8.398;2024-01-16T09:38:44;8.20;;;4.37;;
8592;SDS011;4334;49.982;8.398;2024-01-16T09:41:11;11.23;;;5.20;;
8592;SDS011;4334;49.982;8.398;2024-01-16T09:43:39;9.80;;;4.47;;
8592;SDS011;4334;49.982;8.398;2024-01-16T09:46:07;10.50;;;3.97;;
8592;SDS011;4334;49.982;8.398;2024-01-16T09:48:36;14.03;;;4.80;;
8592;SDS011;4334;49.982;8.398;2024-01-16T09:51:04;13.73;;;4.70;;
8592;SDS011;4334;49.982;8.398;2024-01-16T09:53:31;7.93;;;4.23;;
8592;SDS011;4334;49.982;8.398;2024-01-16T09:55:59;7.53;;;4.10;;
8592;SDS011;4334;49.982;8.398;2024-01-16T09:58:29;9.63;;;4.13;;
8592;SDS011;4334;49.982;8.398;2024-01-16T10:01:00;6.50;;;4.43;;
8592;SDS011;4334;49.982;8.398;2024-01-16T10:03:26;8.03;;;4.27;;
8592;SDS011;4334;49.982;8.398;2024-01-16T10:05:56;8.93;;;4.33;;
8592;SDS011;4334;49.982;8.398;2024-01-16T10:08:26;9.07;;;4.23;;
8592;SDS011;4334;49.982;8.398;2024-01-16T10:10:53;6.90;;;3.97;;
8592;SDS011;4334;49.982;8.398;2024-01-16T10:13:20;8.63;;;4.30;;
8592;SDS011;4334;49.982;8.398;2024-01-16T10:15:49;7.87;;;5.00;;
8592;SDS011;4334;49.982;8.398;2024-01-16T10:18:27;12.07;;;4.07;;
8592;SDS011;4334;49.982;8.398;2024-01-16T10:20:55;7.10;;;4.07;;
8592;SDS011;4334;49.982;8.398;2024-01-16T10:23:22;6.37;;;3.60;;
8592;SDS011;4334;49.982;8.398;2024-01-16T10:28:44;6.00;;;4.27;;
8592;SDS011;4334;49.982;8.398;2024-01-16T10:31:12;6.50;;;3.97;;
8592;SDS011;4334;49.982;8.398;2024-01-16T10:33:40;7.83;;;4.10;;
8592;SDS011;4334;49.982;8.398;2024-01-16T10:36:11;9.13;;;3.87;;
8592;SDS011;4334;49.982;8.398;2024-01-16T10:38:41;6.87;;;3.90;;
8592;SDS011;4334;49.982;8.398;2024-01-16T10:41:10;12.93;;;4.33;;
8592;SDS011;4334;49.982;8.398;2024-01-16T10:43:38;9.10;;;4.00;;
8592;SDS011;4334;49.982;8.398;2024-01-16T10:46:10;8.63;;;4.33;;
8592;SDS011;4334;49.982;8.398;2024-01-16T10:48:38;5.43;;;3.53;;
8592;SDS011;4334;49.982;8.398;2024-01-16T10:51:06;5.67;;;3.93;;
8592;SDS011;4334;49.982;8.398;2024-01-16T10:53:33;6.47;;;3.93;;
8592;SDS011;4334;49.982;8.398;2024-01-16T10:56:01;6.17;;;3.37;;
8592;SDS011;4334;49.982;8.398;2024-01-16T10:58:29;4.40;;;3.27;;
8592;SDS011;4334;49.982;8.398;2024-01-16T11:00:56;9.67;;;3.83;;
8592;SDS011;4334;49.982;8.398;2024-01-16T11:03:29;10.10;;;3.70;;
8592;SDS011;4334;49.982;8.398;2024-01-16T11:06:05;11.80;;;3.80;;
8592;SDS011;4334;49.982;8.398;2024-01-16T11:08:33;9.03;;;3.77;;
8592;SDS011;4334;49.982;8.398;2024-01-16T11:11:01;8.67;;;3.57;;
8592;SDS011;4334;49.982;8.398;2024-01-16T11:13:30;5.90;;;3.60;;
8592;SDS011;4334;49.982;8.398;2024-01-16T11:15:58;5.87;;;3.40;;
8592;SDS011;4334;49.982;8.398;2024-01-16T11:18:26;9.77;;;3.23;;
8592;SDS011;4334;49.982;8.398;2024-01-16T11:20:56;9.10;;;3.20;;
8592;SDS011;4334;49.982;8.398;2024-01-16T11:23:23;5.53;;;3.30;;
8592;SDS011;4334;49.982;8.398;2024-01-16T11:25:50;5.23;;;3.40;;
8592;SDS011;4334;49.982;8.398;2024-01-16T11:28:17;7.03;;;3.20;;
8592;SDS011;4334;49.982;8.398;2024-01-16T11:30:45;3.53;;;2.57;;
8592;SDS011;4334;49.982;8.398;2024-01-16T11:39:09;4.70;;;2.77;;
8592;SDS011;4334;49.982;8.398;2024-01-16T11:41:49;7.77;;;2.50;;
8592;SDS011;4334;49.982;8.398;2024-01-16T11:47:02;5.40;;;2.90;;
8592;SDS011;4334;49.982;8.398;2024-01-16T11:49:31;6.97;;;3.10;;
8592;SDS011;4334;49.982;8.398;2024-01-16T11:51:58;4.77;;;3.03;;
8592;SDS011;4334;49.982;8.398;2024-01-16T11:54:24;3.57;;;2.90;;
8592;SDS011;4334;49.982;8.398;2024-01-16T11:59:57;4.23;;;2.77;;
8592;SDS011;4334;49.982;8.398;2024-01-16T12:02:26;6.07;;;2.70;;
8592;SDS011;4334;49.982;8.398;2024-01-16T12:05:14;4.63;;;2.63;;
8592;SDS011;4334;49.982;8.398;2024-01-16T12:07:45;4.60;;;2.83;;
8592;SDS011;4334;49.982;8.398;2024-01-16T12:10:14;4.17;;;2.60;;
8592;SDS011;4334;49.982;8.398;2024-01-16T12:12:41;6.67;;;3.00;;
8592;SDS011;4334;49.982;8.398;2024-01-16T12:15:13;6.27;;;3.67;;
8592;SDS011;4334;49.982;8.398;2024-01-16T12:17:50;7.13;;;3.73;;
8592;SDS011;4334;49.982;8.398;2024-01-16T12:20:22;9.30;;;4.17;;
8592;SDS011;4334;49.982;8.398;2024-01-16T12:22:53;6.27;;;3.60;;
8592;SDS011;4334;49.982;8.398;2024-01-16T12:25:23;6.10;;;3.93;;
8592;SDS011;4334;49.982;8.398;2024-01-16T12:27:54;7.90;;;3.93;;
8592;SDS011;4334;49.982;8.398;2024-01-16T12:30:23;11.80;;;4.00;;
8592;SDS011;4334;49.982;8.398;2024-01-16T12:33:03;5.57;;;3.50;;
8592;SDS011;4334;49.982;8.398;2024-01-16T12:35:33;6.13;;;3.97;;
8592;SDS011;4334;49.982;8.398;2024-01-16T12:38:00;9.60;;;3.80;;
8592;SDS011;4334;49.982;8.398;2024-01-16T12:40:27;6.90;;;3.83;;
8592;SDS011;4334;49.982;8.398;2024-01-16T12:42:54;9.97;;;4.10;;
8592;SDS011;4334;49.982;8.398;2024-01-16T12:45:21;7.57;;;3.37;;
8592;SDS011;4334;49.982;8.398;2024-01-16T12:47:51;9.40;;;3.87;;
8592;SDS011;4334;49.982;8.398;2024-01-16T12:50:19;6.23;;;3.60;;
8592;SDS011;4334;49.982;8.398;2024-01-16T12:52:48;7.97;;;4.17;;
8592;SDS011;4334;49.982;8.398;2024-01-16T12:55:16;8.70;;;4.20;;
8592;SDS011;4334;49.982;8.398;2024-01-16T12:57:44;8.53;;;3.60;;
8592;SDS011;4334;49.982;8.398;2024-01-16T13:00:21;6.27;;;3.90;;
8592;SDS011;4334;49.982;8.398;2024-01-16T13:02:49;11.37;;;3.80;;
8592;SDS011;4334;49.982;8.398;2024-01-16T13:05:17;7.77;;;3.63;;
8592;SDS011;4334;49.982;8.398;2024-01-16T13:07:44;9.07;;;3.70;;
8592;SDS011;4334;49.982;8.398;2024-01-16T13:10:13;8.93;;;3.50;;
8592;SDS011;4334;49.982;8.398;2024-01-16T13:12:43;8.00;;;3.80;;
8592;SDS011;4334;49.982;8.398;2024-01-16T13:15:10;6.90;;;4.40;;
8592;SDS011;4334;49.982;8.398;2024-01-16T13:17:41;12.80;;;3.63;;
8592;SDS011;4334;49.982;8.398;2024-01-16T13:20:08;6.03;;;3.47;;
8592;SDS011;4334;49.982;8.398;2024-01-16T13:22:38;7.83;;;4.20;;
8592;SDS011;4334;49.982;8.398;2024-01-16T13:25:04;12.03;;;4.47;;
8592;SDS011;4334;49.982;8.398;2024-01-16T13:27:33;7.57;;;3.90;;
8592;SDS011;4334;49.982;8.398;2024-01-16T13:29:59;8.10;;;3.73;;
8592;SDS011;4334;49.982;8.398;2024-01-16T13:32:26;6.73;;;4.00;;
8592;SDS011;4334;49.982;8.398;2024-01-16T13:34:53;6.63;;;3.83;;
8592;SDS011;4334;49.982;8.398;2024-01-16T13:37:20;3.80;;;2.90;;
8592;SDS011;4334;49.982;8.398;2024-01-16T13:39:48;8.33;;;3.73;;
8592;SDS011;4334;49.982;8.398;2024-01-16T13:42:15;5.10;;;3.90;;
8592;SDS011;4334;49.982;8.398;2024-01-16T13:44:46;5.60;;;3.67;;
8592;SDS011;4334;49.982;8.398;2024-01-16T13:47:13;9.17;;;4.10;;
8592;SDS011;4334;49.982;8.398;2024-01-16T13:49:41;6.77;;;3.67;;
8592;SDS011;4334;49.982;8.398;2024-01-16T13:52:08;6.90;;;3.50;;
8592;SDS011;4334;49.982;8.398;2024-01-16T13:54:36;9.20;;;4.10;;
8592;SDS011;4334;49.982;8.398;2024-01-16T13:57:04;6.13;;;3.90;;
8592;SDS011;4334;49.982;8.398;2024-01-16T13:59:31;6.57;;;3.67;;
8592;SDS011;4334;49.982;8.398;2024-01-16T14:01:59;14.33;;;4.40;;
8592;SDS011;4334;49.982;8.398;2024-01-16T14:04:27;10.60;;;4.13;;
8592;SDS011;4334;49.982;8.398;2024-01-16T14:06:54;9.20;;;3.50;;
8592;SDS011;4334;49.982;8.398;2024-01-16T14:09:21;7.30;;;3.70;;
8592;SDS011;4334;49.982;8.398;2024-01-16T14:11:48;7.40;;;4.13;;
8592;SDS011;4334;49.982;8.398;2024-01-16T14:14:15;7.73;;;3.67;;
8592;SDS011;4334;49.982;8.398;2024-01-16T14:16:42;6.10;;;3.93;;
8592;SDS011;4334;49.982;8.398;2024-01-16T14:19:10;7.07;;;3.97;;
8592;SDS011;4334;49.982;8.398;2024-01-16T14:21:37;10.77;;;3.63;;
8592;SDS011;4334;49.982;8.398;2024-01-16T14:24:04;5.60;;;2.90;;
8592;SDS011;4334;49.982;8.398;2024-01-16T14:26:31;6.53;;;3.30;;
8592;SDS011;4334;49.982;8.398;2024-01-16T14:28:59;5.83;;;3.17;;
8592;SDS011;4334;49.982;8.398;2024-01-16T14:31:26;4.37;;;3.00;;
8592;SDS011;4334;49.982;8.398;2024-01-16T14:33:53;3.83;;;2.60;;
8592;SDS011;4334;49.982;8.398;2024-01-16T14:36:21;6.07;;;2.50;;
8592;SDS011;4334;49.982;8.398;2024-01-16T14:38:47;6.37;;;3.03;;
8592;SDS011;4334;49.982;8.398;2024-01-16T14:41:16;7.43;;;4.03;;
8592;SDS011;4334;49.982;8.398;2024-01-16T14:43:43;11.00;;;4.13;;
8592;SDS011;4334;49.982;8.398;2024-01-16T14:46:09;6.97;;;4.30;;
8592;SDS011;4334;49.982;8.398;2024-01-16T14:48:37;7.77;;;3.20;;
8592;SDS011;4334;49.982;8.398;2024-01-16T14:51:04;6.90;;;3.60;;
8592;SDS011;4334;49.982;8.398;2024-01-16T14:53:34;7.47;;;3.43;;
8592;SDS011;4334;49.982;8.398;2024-01-16T14:56:01;5.87;;;3.17;;
8592;SDS011;4334;49.982;8.398;2024-01-16T14:58:28;8.53;;;2.70;;
8592;SDS011;4334;49.982;8.398;2024-01-16T15:00:54;6.00;;;2.90;;
8592;SDS011;4334;49.982;8.398;2024-01-16T15:03:21;8.40;;;3.30;;
8592;SDS011;4334;49.982;8.398;2024-01-16T15:08:16;3.97;;;2.57;;
8592;SDS011;4334;49.982;8.398;2024-01-16T15:10:44;5.77;;;2.57;;
8592;SDS011;4334;49.982;8.398;2024-01-16T15:13:10;7.13;;;3.40;;
8592;SDS011;4334;49.982;8.398;2024-01-16T15:15:37;6.80;;;3.23;;
8592;SDS011;4334;49.982;8.398;2024-01-16T15:18:04;6.10;;;2.87;;
8592;SDS011;4334;49.982;8.398;2024-01-16T15:20:31;5.53;;;3.13;;
8592;SDS011;4334;49.982;8.398;2024-01-16T15:22:57;5.90;;;2.90;;
8592;SDS011;4334;49.982;8.398;2024-01-16T15:25:24;7.90;;;2.93;;
8592;SDS011;4334;49.982;8.398;2024-01-16T15:27:52;6.63;;;2.77;;
8592;SDS011;4334;49.982;8.398;2024-01-16T15:30:19;8.50;;;3.40;;
8592;SDS011;4334;49.982;8.398;2024-01-16T15:32:46;5.57;;;3.13;;